createdAt,value
2022-12-14T00:01:49.000Z,1
2022-12-14T00:03:52.788Z,1
2022-12-14T00:05:48.097Z,1
2022-12-14T00:09:47.910Z,1
2022-12-14T00:11:54.091Z,1
2022-12-14T00:13:51.099Z,1
2022-12-14T00:15:47.944Z,1
2022-12-14T00:17:48.315Z,1
2022-12-14T00:19:48.938Z,1
2022-12-14T00:21:47.626Z,1
2022-12-14T00:23:47.927Z,1
2022-12-14T00:27:48.025Z,1
2022-12-14T00:29:51.140Z,1
2022-12-14T00:31:48.699Z,1
2022-12-14T00:33:48.069Z,1
2022-12-14T00:35:49.616Z,1
2022-12-14T00:37:48.790Z,1
2022-12-14T00:39:57.990Z,1
2022-12-14T00:41:47.907Z,1
2022-12-14T00:43:49.604Z,1
2022-12-14T00:45:51.495Z,1
2022-12-14T00:47:48.075Z,1
2022-12-14T00:49:54.635Z,1
2022-12-14T00:51:51.670Z,1
2022-12-14T00:53:48.156Z,1
2022-12-14T00:55:49.137Z,1
2022-12-14T00:57:53.817Z,1
2022-12-14T00:59:48.226Z,1
2022-12-14T01:01:47.715Z,1
2022-12-14T01:03:47.910Z,1
2022-12-14T01:05:51.399Z,1
2022-12-14T01:07:46.452Z,1
2022-12-14T01:09:47.791Z,1
2022-12-14T01:11:47.798Z,1
2022-12-14T01:13:51.197Z,1
2022-12-14T01:15:51.450Z,1
2022-12-14T01:17:48.093Z,1
2022-12-14T01:19:48.949Z,1
2022-12-14T01:23:51.384Z,1
2022-12-14T01:25:48.920Z,1
2022-12-14T01:27:48.184Z,1
2022-12-14T01:29:50.002Z,1
2022-12-14T01:31:48.659Z,1
2022-12-14T01:33:55.553Z,1
2022-12-14T01:35:47.872Z,1
2022-12-14T01:37:51.540Z,1
2022-12-14T01:39:51.630Z,1
2022-12-14T01:41:48.084Z,1
2022-12-14T01:43:48.763Z,1
2022-12-14T01:45:49.664Z,1
2022-12-14T01:47:48.043Z,1
2022-12-14T01:49:49.225Z,1
2022-12-14T01:51:48.235Z,1
2022-12-14T01:53:55.496Z,1
2022-12-14T01:55:49.057Z,1
2022-12-14T01:57:48.071Z,1
2022-12-14T01:59:52.557Z,1
2022-12-14T02:01:48.550Z,1
2022-12-14T02:03:51.696Z,1
2022-12-14T02:05:48.143Z,1
2022-12-14T02:07:48.886Z,1
2022-12-14T02:09:54.716Z,1
2022-12-14T02:11:47.818Z,1
2022-12-14T02:13:48.928Z,1
2022-12-14T02:17:48.212Z,1
2022-12-14T02:19:48.342Z,1
2022-12-14T02:21:51.452Z,1
2022-12-14T02:25:49.274Z,1
2022-12-14T02:27:47.958Z,1
2022-12-14T02:29:51.196Z,1
2022-12-14T02:31:48.839Z,1
2022-12-14T02:33:54.633Z,1
2022-12-14T02:35:47.920Z,1
2022-12-14T02:37:51.337Z,1
2022-12-14T02:39:54.787Z,1
2022-12-14T02:41:51.325Z,1
2022-12-14T02:43:47.787Z,1
2022-12-14T02:45:54.609Z,1
2022-12-14T02:47:47.963Z,1
2022-12-14T02:49:48.965Z,1
2022-12-14T02:51:47.939Z,1
2022-12-14T02:53:48.290Z,1
2022-12-14T02:55:54.662Z,1
2022-12-14T02:57:47.980Z,1
2022-12-14T02:59:48.285Z,1
2022-12-14T03:01:52.552Z,1
2022-12-14T03:03:51.625Z,1
2022-12-14T03:05:51.629Z,1
2022-12-14T03:07:48.667Z,1
2022-12-14T03:09:54.616Z,1
2022-12-14T03:11:47.874Z,1
2022-12-14T03:13:49.158Z,1
2022-12-14T03:15:48.019Z,1
2022-12-14T03:17:51.012Z,1
2022-12-14T03:19:48.807Z,1
2022-12-14T03:21:48.232Z,1
2022-12-14T03:23:54.287Z,1
2022-12-14T03:25:48.589Z,1
2022-12-14T03:27:52.064Z,1
2022-12-14T03:29:47.967Z,1
2022-12-14T03:31:47.955Z,1
2022-12-14T03:33:51.134Z,1
2022-12-14T03:35:54.392Z,1
2022-12-14T03:37:51.516Z,1
2022-12-14T03:39:48.077Z,1
2022-12-14T03:41:48.870Z,1
2022-12-14T03:43:53.261Z,1
2022-12-14T03:45:48.136Z,1
2022-12-14T03:47:47.954Z,1
2022-12-14T03:49:48.982Z,1
2022-12-14T03:51:51.522Z,1
2022-12-14T03:53:47.707Z,1
2022-12-14T03:55:48.933Z,1
2022-12-14T03:57:49.663Z,1
2022-12-14T03:59:51.540Z,1
2022-12-14T04:01:49.144Z,1
2022-12-14T04:03:47.765Z,1
2022-12-14T04:05:52.501Z,1
2022-12-14T04:07:51.269Z,1
2022-12-14T04:09:47.979Z,1
2022-12-14T04:11:47.858Z,1
2022-12-14T04:13:51.689Z,1
2022-12-14T04:15:51.466Z,1
2022-12-14T04:17:51.500Z,1
2022-12-14T04:19:51.644Z,1
2022-12-14T04:21:47.983Z,1
2022-12-14T04:23:51.133Z,1
2022-12-14T04:25:54.701Z,1
2022-12-14T04:27:51.541Z,1
2022-12-14T04:29:48.245Z,1
2022-12-14T04:31:49.098Z,1
2022-12-14T04:33:49.685Z,1
2022-12-14T04:35:47.994Z,1
2022-12-14T04:37:48.703Z,1
2022-12-14T04:39:52.019Z,1
2022-12-14T04:41:47.939Z,1
2022-12-14T04:43:50.991Z,1
2022-12-14T04:45:48.016Z,1
2022-12-14T04:47:48.177Z,1
2022-12-14T04:49:49.130Z,1
2022-12-14T04:51:49.706Z,1
2022-12-14T04:53:47.879Z,1
2022-12-14T04:55:50.661Z,1
2022-12-14T04:57:48.087Z,1
2022-12-14T04:59:51.563Z,1
2022-12-14T05:01:48.987Z,1
2022-12-14T05:03:47.846Z,1
2022-12-14T05:05:51.642Z,1
2022-12-14T05:07:46.908Z,1
2022-12-14T05:09:49.290Z,1
2022-12-14T05:11:54.183Z,1
2022-12-14T05:13:48.830Z,1
2022-12-14T05:15:47.955Z,1
2022-12-14T05:17:53.772Z,1
2022-12-14T05:19:51.251Z,1
2022-12-14T05:21:48.128Z,1
2022-12-14T05:23:47.879Z,1
2022-12-14T05:25:48.881Z,1
2022-12-14T05:27:54.619Z,1
2022-12-14T05:29:48.260Z,1
2022-12-14T05:31:52.896Z,1
2022-12-14T05:33:47.941Z,1
2022-12-14T05:35:51.771Z,1
2022-12-14T05:37:51.213Z,1
2022-12-14T05:39:47.894Z,1
2022-12-14T05:41:49.690Z,1
2022-12-14T05:43:48.949Z,1
2022-12-14T05:45:47.929Z,1
2022-12-14T05:47:48.134Z,1
2022-12-14T05:49:55.144Z,1
2022-12-14T05:53:48.157Z,1
2022-12-14T05:55:47.721Z,1
2022-12-14T05:57:48.250Z,1
2022-12-14T05:59:51.100Z,1
2022-12-14T06:01:49.153Z,1
2022-12-14T06:03:51.478Z,1
2022-12-14T06:05:48.203Z,0
2022-12-14T06:07:48.188Z,0
2022-12-14T06:09:47.879Z,0
2022-12-14T06:11:51.529Z,0
2022-12-14T06:13:48.203Z,0.1
2022-12-14T06:15:51.603Z,0.1
2022-12-14T06:17:51.627Z,0.2
2022-12-14T06:21:48.011Z,0.3
2022-12-14T06:23:47.941Z,0.4
2022-12-14T06:25:47.724Z,0.6
2022-12-14T06:27:51.803Z,0.8
2022-12-14T06:29:48.056Z,1.2
2022-12-14T06:31:49.272Z,1.7
2022-12-14T06:33:48.011Z,2.3
2022-12-14T06:35:47.881Z,3.5
2022-12-14T06:37:48.954Z,5
2022-12-14T06:39:52.670Z,7
2022-12-14T06:41:51.332Z,9.5
2022-12-14T06:43:49.431Z,12.2
2022-12-14T06:45:47.981Z,15.6
2022-12-14T06:47:47.643Z,20.1
2022-12-14T06:49:54.277Z,25.8
2022-12-14T06:51:51.191Z,34.8
2022-12-14T06:53:51.532Z,38.5
2022-12-14T06:55:49.178Z,42.5
2022-12-14T06:59:48.141Z,57.4
2022-12-14T07:01:49.892Z,70.1
2022-12-14T07:03:48.439Z,73.7
2022-12-14T07:05:49.143Z,81.5
2022-12-14T07:13:03.068Z,90
2022-12-14T07:13:08.392Z,134.3
2022-12-14T07:15:07.958Z,200.3
2022-12-14T07:17:04.846Z,257.2
2022-12-14T07:19:07.468Z,314.2
2022-12-14T07:21:04.617Z,330.3
2022-12-14T07:23:07.382Z,347.2
2022-12-14T07:25:04.777Z,347.2
2022-12-14T07:27:04.471Z,314.2
2022-12-14T07:29:15.720Z,298.9
2022-12-14T07:31:04.784Z,298.9
2022-12-14T07:33:04.707Z,314.2
2022-12-14T07:35:11.760Z,365
2022-12-14T07:39:07.893Z,383.8
2022-12-14T07:41:04.612Z,403.4
2022-12-14T07:43:14.431Z,492.7
2022-12-14T07:45:04.869Z,572.5
2022-12-14T07:47:04.895Z,632.7
2022-12-14T07:49:12.554Z,601.8
2022-12-14T07:51:11.048Z,492.7
2022-12-14T07:53:05.003Z,445.9
2022-12-14T07:55:05.364Z,518
2022-12-14T07:57:04.986Z,632.7
2022-12-14T07:59:04.588Z,699.2
2022-12-14T08:01:04.590Z,665.1
2022-12-14T08:03:08.863Z,772.8
2022-12-14T08:05:12.196Z,943.9
2022-12-14T08:07:08.412Z,992.3
2022-12-14T08:09:08.459Z,1152.9
2022-12-14T08:11:04.595Z,1274.1
2022-12-14T08:13:19.737Z,1274.1
2022-12-14T08:15:04.759Z,1152.9
2022-12-14T08:17:04.674Z,992.3
2022-12-14T08:19:06.063Z,854.1
2022-12-14T08:21:08.377Z,699.2
2022-12-14T08:23:07.991Z,735.1
2022-12-14T08:25:05.429Z,699.2
2022-12-14T08:27:05.047Z,572.5
2022-12-14T08:29:19.210Z,544.6
2022-12-14T08:31:08.407Z,572.5
2022-12-14T08:33:04.827Z,665.1
2022-12-14T08:35:04.916Z,665.1
2022-12-14T08:37:17.266Z,772.8
2022-12-14T08:39:08.258Z,897.8
2022-12-14T08:41:04.960Z,1096.6
2022-12-14T08:43:08.370Z,1152.9
2022-12-14T08:45:08.154Z,1152.9
2022-12-14T08:47:04.638Z,1556.2
2022-12-14T08:49:04.599Z,1556.2
2022-12-14T08:51:08.477Z,1408.1
2022-12-14T08:53:08.299Z,1480.3
2022-12-14T08:55:04.603Z,1480.3
2022-12-14T08:57:05.749Z,1808
2022-12-14T08:59:08.078Z,2100.6
2022-12-14T09:01:08.295Z,2565.7
2022-12-14T09:03:08.541Z,2835.6
2022-12-14T09:05:01.899Z,2835.6
2022-12-14T09:07:04.896Z,2697.3
2022-12-14T09:09:13.543Z,2321.6
2022-12-14T09:11:04.675Z,1900.7
2022-12-14T09:13:04.848Z,1480.3
2022-12-14T09:15:04.469Z,1212
2022-12-14T09:21:05.003Z,2208.3
2022-12-14T09:23:08.171Z,2440.6
2022-12-14T09:25:04.746Z,1998.2
2022-12-14T09:27:11.336Z,1556.2
2022-12-14T09:29:04.523Z,1480.3
2022-12-14T09:31:05.313Z,1556.2
2022-12-14T09:33:04.596Z,1556.2
2022-12-14T09:35:17.889Z,1636
2022-12-14T09:37:05.354Z,1719.9
2022-12-14T09:39:20.516Z,1719.9
2022-12-14T09:41:07.172Z,1719.9
2022-12-14T09:43:14.652Z,1636
2022-12-14T09:45:07.971Z,1556.2
2022-12-14T09:47:07.990Z,1480.3
2022-12-14T09:49:04.517Z,1636
2022-12-14T09:51:05.003Z,1998.2
2022-12-14T09:53:11.297Z,2208.3
2022-12-14T09:55:05.234Z,2321.6
2022-12-14T09:57:04.909Z,2440.6
2022-12-14T09:59:14.718Z,2835.6
2022-12-14T10:03:06.463Z,3133.8
2022-12-14T10:05:04.894Z,2565.7
2022-12-14T10:07:08.954Z,2440.6
2022-12-14T10:09:05.109Z,2440.6
2022-12-14T10:11:04.704Z,2565.7
2022-12-14T10:13:07.846Z,2565.7
2022-12-14T10:15:04.547Z,2565.7
2022-12-14T10:19:12.464Z,2321.6
2022-12-14T10:21:04.599Z,2100.6
2022-12-14T10:23:05.791Z,1998.2
2022-12-14T10:25:08.124Z,1998.2
2022-12-14T10:27:04.789Z,2100.6
2022-12-14T10:29:04.552Z,2208.3
2022-12-14T10:31:37.328Z,2208.3
2022-12-14T10:33:04.612Z,1998.2
2022-12-14T10:35:04.793Z,1998.2
2022-12-14T10:37:04.902Z,1998.2
2022-12-14T10:39:04.554Z,1900.7
2022-12-14T10:41:17.123Z,1998.2
2022-12-14T10:43:05.058Z,1998.2
2022-12-14T10:47:05.033Z,2321.6
2022-12-14T10:49:12.925Z,2697.3
2022-12-14T10:51:04.479Z,2981
2022-12-14T10:53:08.081Z,3133.8
2022-12-14T10:55:04.922Z,3294.5
2022-12-14T10:57:08.588Z,3641
2022-12-14T10:59:04.837Z,3827.6
2022-12-14T11:01:04.536Z,3294.5
2022-12-14T11:03:07.753Z,2835.6
2022-12-14T11:05:08.035Z,3133.8
2022-12-14T11:07:05.227Z,3463.4
2022-12-14T11:09:04.708Z,3294.5
2022-12-14T11:11:04.724Z,3294.5
2022-12-14T11:13:08.443Z,2981
2022-12-14T11:15:08.573Z,2565.7
2022-12-14T11:17:08.742Z,2440.6
2022-12-14T11:19:04.684Z,2440.6
2022-12-14T11:21:04.589Z,2321.6
2022-12-14T11:23:08.149Z,2835.6
2022-12-14T11:25:07.891Z,2835.6
2022-12-14T11:27:05.217Z,3133.8
2022-12-14T11:29:13.246Z,3294.5
2022-12-14T11:33:04.693Z,2208.3
2022-12-14T11:35:04.632Z,1808
2022-12-14T11:37:06.102Z,1480.3
2022-12-14T11:39:14.841Z,1556.2
2022-12-14T11:41:09.105Z,1719.9
2022-12-14T11:43:05.188Z,1719.9
2022-12-14T11:45:06.039Z,1998.2
2022-12-14T11:47:15.160Z,2208.3
2022-12-14T11:49:08.354Z,1998.2
2022-12-14T11:51:04.967Z,1998.2
2022-12-14T11:53:11.391Z,2100.6
2022-12-14T11:55:08.427Z,2208.3
2022-12-14T11:57:04.850Z,1998.2
2022-12-14T11:59:06.809Z,2208.3
2022-12-14T12:01:04.573Z,2565.7
2022-12-14T12:03:04.758Z,2835.6
2022-12-14T12:05:06.025Z,2835.6
2022-12-14T12:07:12.065Z,2835.6
2022-12-14T12:09:04.587Z,2835.6
2022-12-14T12:11:06.356Z,2981
2022-12-14T12:13:04.784Z,2981
2022-12-14T12:15:04.836Z,3294.5
2022-12-14T12:17:08.397Z,2981
2022-12-14T12:19:11.212Z,2981
2022-12-14T12:21:07.697Z,3133.8
2022-12-14T12:23:08.254Z,3463.4
2022-12-14T12:25:25.287Z,3641
2022-12-14T12:27:06.330Z,3294.5
2022-12-14T12:29:14.830Z,2565.7
2022-12-14T12:31:09.048Z,2440.6
2022-12-14T12:35:11.767Z,3294.5
2022-12-14T12:37:26.124Z,3641
2022-12-14T12:39:05.152Z,3827.6
2022-12-14T12:41:05.146Z,3641
2022-12-14T12:43:15.006Z,3641
2022-12-14T12:45:07.929Z,3827.6
2022-12-14T12:47:24.246Z,3641
2022-12-14T12:49:08.290Z,3133.8
2022-12-14T12:51:08.501Z,3294.5
2022-12-14T12:53:04.793Z,3133.8
2022-12-14T12:55:04.782Z,3294.5
2022-12-14T12:57:05.996Z,3641
2022-12-14T12:59:04.797Z,3827.6
2022-12-14T13:01:05.101Z,4230.2
2022-12-14T13:05:22.214Z,4675.1
2022-12-14T13:07:08.352Z,3827.6
2022-12-14T13:09:08.227Z,3463.4
2022-12-14T13:11:27.267Z,3133.8
2022-12-14T13:13:05.085Z,3294.5
2022-12-14T13:15:14.388Z,2981
2022-12-14T13:17:08.297Z,2981
2022-12-14T13:19:32.408Z,2981
2022-12-14T13:21:05.478Z,3133.8
2022-12-14T13:23:21.615Z,3133.8
2022-12-14T13:25:08.512Z,2697.3
2022-12-14T13:27:17.064Z,2321.6
2022-12-14T13:29:04.764Z,1998.2
2022-12-14T13:33:05.052Z,1480.3
2022-12-14T13:35:04.886Z,1480.3
2022-12-14T13:37:08.803Z,1636
2022-12-14T13:39:04.769Z,1998.2
2022-12-14T13:41:08.492Z,1808
2022-12-14T13:43:05.192Z,1808
2022-12-14T13:45:07.924Z,1998.2
2022-12-14T13:47:04.775Z,1636
2022-12-14T13:49:07.946Z,1152.9
2022-12-14T13:51:02.596Z,1152.9
2022-12-14T13:53:08.111Z,812.4
2022-12-14T13:55:08.028Z,772.8
2022-12-14T13:57:08.363Z,772.8
2022-12-14T13:59:05.005Z,812.4
2022-12-14T14:01:08.392Z,812.4
2022-12-14T14:03:04.752Z,699.2
2022-12-14T14:05:11.870Z,632.7
2022-12-14T14:07:04.870Z,632.7
2022-12-14T14:09:04.756Z,665.1
2022-12-14T14:11:35.627Z,699.2
2022-12-14T14:13:08.447Z,735.1
2022-12-14T14:15:04.980Z,772.8
2022-12-14T14:17:05.343Z,772.8
2022-12-14T14:19:05.937Z,735.1
2022-12-14T14:21:04.562Z,601.8
2022-12-14T14:23:04.766Z,601.8
2022-12-14T14:25:09.346Z,632.7
2022-12-14T14:27:04.895Z,632.7
2022-12-14T14:29:15.767Z,665.1
2022-12-14T14:31:08.470Z,699.2
2022-12-14T14:33:36.194Z,665.1
2022-12-14T14:35:04.775Z,601.8
2022-12-14T14:37:09.798Z,518
2022-12-14T14:39:31.347Z,518
2022-12-14T14:41:16.346Z,544.6
2022-12-14T14:43:16.221Z,572.5
2022-12-14T14:45:04.878Z,601.8
2022-12-14T14:47:07.284Z,601.8
2022-12-14T14:49:08.230Z,572.5
2022-12-14T14:51:15.057Z,544.6
2022-12-14T14:53:08.294Z,468.7
2022-12-14T14:55:35.522Z,403.4
2022-12-14T14:57:04.790Z,365
2022-12-14T14:59:08.632Z,347.2
2022-12-14T15:01:04.992Z,314.2
2022-12-14T15:03:09.204Z,298.9
2022-12-14T15:05:32.975Z,314.2
2022-12-14T15:07:04.905Z,298.9
2022-12-14T15:09:16.673Z,257.2
2022-12-14T15:11:04.804Z,221.4
2022-12-14T15:13:04.670Z,181.3
2022-12-14T15:15:09.796Z,134.3
2022-12-14T15:17:05.229Z,121.5
2022-12-14T15:19:16.187Z,99.5
2022-12-14T15:21:05.246Z,85.6
2022-12-14T15:23:07.935Z,73.7
2022-12-14T15:25:05.383Z,60.3
2022-12-14T15:27:04.770Z,47
2022-12-14T15:29:08.298Z,36.6
2022-12-14T15:31:05.377Z,28.5
2022-12-14T15:33:05.707Z,23.3
2022-12-14T15:35:08.363Z,16.4
2022-12-14T15:37:04.900Z,12.2
2022-12-14T15:39:16.200Z,9
2022-12-14T15:41:04.627Z,6.7
2022-12-14T15:43:08.501Z,4.3
2022-12-14T15:45:04.917Z,3
2022-12-14T15:47:08.386Z,2.1
2022-12-14T15:49:08.473Z,1.6
2022-12-14T15:51:04.691Z,1.2
2022-12-14T15:53:08.006Z,0.8
2022-12-14T15:55:07.992Z,0.5
2022-12-14T15:57:08.476Z,0.4
2022-12-14T15:59:08.172Z,0.3
2022-12-14T16:01:05.164Z,0.2
2022-12-14T16:03:06.813Z,0.2
2022-12-14T16:05:02.178Z,0.2
2022-12-14T16:07:08.903Z,0.1
2022-12-14T16:09:06.127Z,0.1
2022-12-14T16:11:08.541Z,0
2022-12-14T16:13:05.447Z,0
2022-12-14T16:15:14.511Z,0
2022-12-14T16:17:05.037Z,0
2022-12-14T16:19:25.644Z,0
2022-12-14T16:21:09.500Z,0
2022-12-14T16:23:07.923Z,0
2022-12-14T16:25:05.020Z,0
2022-12-14T16:27:15.255Z,0
2022-12-14T16:29:04.821Z,0
2022-12-14T16:31:04.977Z,0
2022-12-14T16:33:16.768Z,0
2022-12-14T16:35:05.098Z,0
2022-12-14T16:37:31.966Z,0
2022-12-14T16:39:16.129Z,0
2022-12-14T16:43:11.698Z,0
2022-12-14T16:45:05.012Z,1
2022-12-14T16:47:16.244Z,1
2022-12-14T16:49:08.356Z,1
2022-12-14T16:51:12.865Z,1
2022-12-14T16:53:04.882Z,1
2022-12-14T16:55:06.109Z,1
2022-12-14T16:57:04.873Z,1
2022-12-14T16:59:05.440Z,1
2022-12-14T17:01:05.008Z,1
2022-12-14T17:03:08.413Z,1
2022-12-14T17:05:05.073Z,1
2022-12-14T17:07:04.954Z,1
2022-12-14T17:09:19.971Z,1
2022-12-14T17:11:04.946Z,1
2022-12-14T17:13:05.470Z,1
2022-12-14T17:15:08.512Z,1
2022-12-14T17:17:08.670Z,1
2022-12-14T17:19:12.220Z,1
2022-12-14T17:21:05.394Z,1
2022-12-14T17:23:04.663Z,1
2022-12-14T17:25:05.230Z,0
2022-12-14T17:27:06.466Z,0
2022-12-14T17:29:05.310Z,1
2022-12-14T17:31:08.030Z,1
2022-12-14T17:33:07.966Z,1
2022-12-14T17:35:07.801Z,1
2022-12-14T17:37:08.449Z,1
2022-12-14T17:39:05.159Z,1
2022-12-14T17:41:05.526Z,1
2022-12-14T17:43:04.839Z,1
2022-12-14T17:45:14.323Z,1
2022-12-14T17:49:06.709Z,1
2022-12-14T17:51:05.203Z,1
2022-12-14T17:53:09.355Z,1
2022-12-14T17:55:04.930Z,1
2022-12-14T17:57:05.022Z,1
2022-12-14T17:59:12.383Z,1
2022-12-14T18:01:04.895Z,1
2022-12-14T18:03:22.271Z,1
2022-12-14T18:05:04.869Z,1
2022-12-14T18:07:08.310Z,1
2022-12-14T18:09:05.125Z,1
2022-12-14T18:11:13.509Z,1
2022-12-14T18:13:11.753Z,1
2022-12-14T18:15:04.790Z,1
2022-12-14T18:17:09.761Z,1
2022-12-14T18:19:09.041Z,1
2022-12-14T18:21:05.216Z,1
2022-12-14T18:23:08.154Z,1
2022-12-14T18:25:04.892Z,1
2022-12-14T18:27:04.927Z,1
2022-12-14T18:29:05.278Z,1
2022-12-14T18:31:19.594Z,1
2022-12-14T18:33:11.766Z,1
2022-12-14T18:35:04.843Z,1
2022-12-14T18:37:05.200Z,1
2022-12-14T18:39:09.146Z,1
2022-12-14T18:41:05.651Z,1
2022-12-14T18:43:04.888Z,1
2022-12-14T18:45:08.986Z,1
2022-12-14T18:47:39.849Z,1
2022-12-14T18:49:05.054Z,1
2022-12-14T18:51:08.660Z,1
2022-12-14T18:53:05.326Z,1
2022-12-14T18:55:07.995Z,1
2022-12-14T18:57:05.015Z,1
2022-12-14T18:59:05.834Z,1
2022-12-14T19:01:05.758Z,1
2022-12-14T19:03:08.366Z,1
2022-12-14T19:05:05.123Z,1
2022-12-14T19:07:04.788Z,1
2022-12-14T19:09:04.978Z,1
2022-12-14T19:11:16.916Z,1
2022-12-14T19:13:04.936Z,1
2022-12-14T19:15:06.531Z,1
2022-12-14T19:17:08.509Z,1
2022-12-14T19:19:05.034Z,1
2022-12-14T19:21:05.277Z,1
2022-12-14T19:23:09.737Z,1
2022-12-14T19:25:05.134Z,1
2022-12-14T19:27:08.197Z,1
2022-12-14T19:29:08.279Z,1
2022-12-14T19:31:05.454Z,1
2022-12-14T19:33:14.305Z,0
2022-12-14T19:35:04.932Z,0
2022-12-14T19:37:07.610Z,0
2022-12-14T19:39:12.058Z,0
2022-12-14T19:41:05.052Z,0
2022-12-14T19:43:05.074Z,0
2022-12-14T19:45:10.178Z,0
2022-12-14T19:49:04.860Z,0
2022-12-14T19:51:05.013Z,0
2022-12-14T19:53:06.534Z,0
2022-12-14T19:55:04.795Z,0
2022-12-14T19:57:08.578Z,1
2022-12-14T19:59:04.838Z,1
2022-12-14T20:01:05.243Z,1
2022-12-14T20:03:16.057Z,1
2022-12-14T20:05:05.229Z,1
2022-12-14T20:07:15.078Z,1
2022-12-14T20:09:14.943Z,1
2022-12-14T20:11:08.270Z,1
2022-12-14T20:13:04.914Z,1
2022-12-14T20:15:15.664Z,1
2022-12-14T20:19:04.984Z,1
2022-12-14T20:21:04.866Z,1
2022-12-14T20:23:06.277Z,1
2022-12-14T20:25:04.933Z,1
2022-12-14T20:27:05.392Z,1
2022-12-14T20:29:13.201Z,1
2022-12-14T20:31:05.095Z,1
2022-12-14T20:33:05.076Z,1
2022-12-14T20:35:08.135Z,1
2022-12-14T20:37:05.042Z,1
2022-12-14T20:39:12.486Z,1
2022-12-14T20:41:05.246Z,1
2022-12-14T20:43:04.813Z,1
2022-12-14T20:45:07.161Z,1
2022-12-14T20:47:09.878Z,1
2022-12-14T20:49:04.914Z,1
2022-12-14T20:51:04.854Z,1
2022-12-14T20:53:20.534Z,1
2022-12-14T20:55:04.797Z,1
2022-12-14T20:57:04.904Z,0
2022-12-14T20:59:15.971Z,1
2022-12-14T21:01:04.964Z,0
2022-12-14T21:03:14.565Z,0
2022-12-14T21:05:04.889Z,1
2022-12-14T21:07:10.463Z,1
2022-12-14T21:09:08.378Z,1
2022-12-14T21:11:04.893Z,1
2022-12-14T21:13:08.383Z,0
2022-12-14T21:15:12.197Z,0
2022-12-14T21:17:08.428Z,1
2022-12-14T21:19:08.024Z,1
2022-12-14T21:21:04.874Z,1
2022-12-14T21:23:10.408Z,1
2022-12-14T21:25:06.289Z,1
2022-12-14T21:27:04.722Z,1
2022-12-14T21:29:07.476Z,1
2022-12-14T21:31:08.752Z,1
2022-12-14T21:33:04.909Z,1
2022-12-14T21:35:04.906Z,1
2022-12-14T21:37:04.767Z,1
2022-12-14T21:39:15.110Z,1
2022-12-14T21:41:04.947Z,1
2022-12-14T21:43:05.254Z,1
2022-12-14T21:45:09.298Z,1
2022-12-14T21:47:04.853Z,1
2022-12-14T21:49:08.462Z,1
2022-12-14T21:51:05.500Z,1
2022-12-14T21:53:08.715Z,1
2022-12-14T21:55:04.887Z,1
2022-12-14T21:57:04.873Z,1
2022-12-14T21:59:15.310Z,1
2022-12-14T22:01:05.110Z,1
2022-12-14T22:03:08.478Z,1
2022-12-14T22:05:04.857Z,1
2022-12-14T22:07:05.104Z,1
2022-12-14T22:09:04.906Z,1
2022-12-14T22:11:08.043Z,1
2022-12-14T22:13:05.357Z,1
2022-12-14T22:15:07.949Z,1
2022-12-14T22:17:04.966Z,1
2022-12-14T22:19:04.861Z,1
2022-12-14T22:21:04.923Z,1
2022-12-14T22:23:04.930Z,1
2022-12-14T22:25:09.484Z,1
2022-12-14T22:27:07.957Z,1
2022-12-14T22:29:04.752Z,1
2022-12-14T22:31:05.006Z,1
2022-12-14T22:33:05.388Z,1
2022-12-14T22:35:08.113Z,1
2022-12-14T22:37:07.991Z,1
2022-12-14T22:39:08.062Z,1
2022-12-14T22:41:04.872Z,1
2022-12-14T22:43:05.330Z,1
2022-12-14T22:45:08.094Z,1
2022-12-14T22:47:04.956Z,1
2022-12-14T22:49:05.216Z,1
2022-12-14T22:51:20.080Z,1
2022-12-14T22:53:05.181Z,1
2022-12-14T22:55:06.548Z,1
2022-12-14T22:57:04.894Z,1
2022-12-14T22:59:08.780Z,1
2022-12-14T23:01:08.527Z,1
2022-12-14T23:03:05.237Z,1
2022-12-14T23:05:08.088Z,1
2022-12-14T23:07:04.817Z,1
2022-12-14T23:09:04.876Z,1
2022-12-14T23:11:08.561Z,1
2022-12-14T23:13:05.360Z,1
2022-12-14T23:15:04.976Z,1
2022-12-14T23:17:13.206Z,1
2022-12-14T23:19:05.173Z,1
2022-12-14T23:21:05.059Z,1
2022-12-14T23:23:05.403Z,1
2022-12-14T23:25:06.635Z,1
2022-12-14T23:27:09.785Z,1
2022-12-14T23:29:08.097Z,1
2022-12-14T23:31:05.115Z,1
2022-12-14T23:33:05.334Z,1
2022-12-14T23:35:08.037Z,1
2022-12-14T23:37:04.915Z,1
2022-12-14T23:39:17.756Z,1
2022-12-14T23:41:04.999Z,1
2022-12-14T23:43:18.841Z,1
2022-12-14T23:45:08.347Z,1
2022-12-14T23:47:08.135Z,1
2022-12-14T23:49:05.820Z,1
2022-12-14T23:51:08.439Z,1
2022-12-14T23:53:05.470Z,1
2022-12-14T23:55:08.769Z,1
2022-12-14T23:57:08.374Z,1
2022-12-14T23:59:04.931Z,1
